createdAt,value
2023-01-17T00:01:36.272Z,31.36
2023-01-17T00:04:28.754Z,31.28
2023-01-17T00:07:28.790Z,31.30
2023-01-17T00:10:12.738Z,31.30
2023-01-17T00:12:55.112Z,31.16
2023-01-17T00:15:32.947Z,31.12
2023-01-17T00:18:07.438Z,31.08
2023-01-17T00:21:03.190Z,31.10
2023-01-17T00:23:56.440Z,32.11
2023-01-17T00:26:31.812Z,31.47
2023-01-17T00:29:08.475Z,31.24
2023-01-17T00:31:44.293Z,31.17
2023-01-17T00:34:15.198Z,31.08
2023-01-17T00:36:44.412Z,30.99
2023-01-17T00:39:18.895Z,30.94
2023-01-17T00:41:51.934Z,30.96
2023-01-17T00:44:40.576Z,30.83
2023-01-17T00:47:31.982Z,30.83
2023-01-17T00:50:31.292Z,30.76
2023-01-17T00:53:25.080Z,30.65
2023-01-17T00:56:34.245Z,30.53
2023-01-17T00:59:32.311Z,30.46
2023-01-17T01:02:30.292Z,30.38
2023-01-17T01:05:19.953Z,30.33
2023-01-17T01:08:11.421Z,30.28
2023-01-17T01:11:11.979Z,30.28
2023-01-17T01:14:03.821Z,30.24
2023-01-17T01:16:54.356Z,30.22
2023-01-17T01:19:51.539Z,30.22
2023-01-17T01:22:48.294Z,30.07
2023-01-17T01:25:39.758Z,29.94
2023-01-17T01:28:42.359Z,29.95
2023-01-17T01:31:33.005Z,29.96
2023-01-17T01:34:07.340Z,29.91
2023-01-17T01:36:36.356Z,29.80
2023-01-17T01:39:08.252Z,29.77
2023-01-17T01:41:41.787Z,29.66
2023-01-17T01:45:33.740Z,29.82
2023-01-17T01:48:56.686Z,30.07
2023-01-17T01:52:02.635Z,29.96
2023-01-17T01:54:48.365Z,29.83
2023-01-17T01:57:24.432Z,29.60
2023-01-17T02:00:09.045Z,29.65
2023-01-17T02:02:44.702Z,29.63
2023-01-17T02:05:23.949Z,29.44
2023-01-17T02:08:02.462Z,29.43
2023-01-17T02:10:40.033Z,29.52
2023-01-17T02:13:12.074Z,29.55
2023-01-17T02:16:15.465Z,29.80
2023-01-17T02:19:10.231Z,29.69
2023-01-17T02:22:30.253Z,29.76
2023-01-17T02:25:10.559Z,29.62
2023-01-17T02:28:00.393Z,29.51
2023-01-17T02:30:48.244Z,29.39
2023-01-17T02:33:38.035Z,29.38
2023-01-17T02:36:24.026Z,29.42
2023-01-17T02:39:23.518Z,29.49
2023-01-17T02:42:06.590Z,29.28
2023-01-17T02:44:46.513Z,29.14
2023-01-17T02:47:39.589Z,29.17
2023-01-17T02:50:20.871Z,29.00
2023-01-17T02:53:05.225Z,28.94
2023-01-17T02:55:59.699Z,28.87
2023-01-17T02:58:56.201Z,28.87
2023-01-17T03:02:26.077Z,28.91
2023-01-17T03:05:10.267Z,28.72
2023-01-17T03:07:45.162Z,28.55
2023-01-17T03:10:20.244Z,28.41
2023-01-17T03:12:59.323Z,28.25
2023-01-17T03:15:30.449Z,28.19
2023-01-17T03:18:07.076Z,28.14
2023-01-17T03:20:36.485Z,28.13
2023-01-17T03:23:06.643Z,28.10
2023-01-17T03:25:44.059Z,28.09
2023-01-17T03:28:15.304Z,28.05
2023-01-17T03:30:44.300Z,27.98
2023-01-17T03:33:22.397Z,28.01
2023-01-17T03:35:51.365Z,28.98
2023-01-17T03:38:23.439Z,28.51
2023-01-17T03:40:59.212Z,28.30
2023-01-17T03:43:38.406Z,28.30
2023-01-17T03:46:22.609Z,28.32
2023-01-17T03:48:57.998Z,28.34
2023-01-17T03:51:31.601Z,28.37
2023-01-17T03:54:02.466Z,28.30
2023-01-17T03:56:35.491Z,28.30
2023-01-17T03:59:12.978Z,28.25
2023-01-17T04:01:48.464Z,28.09
2023-01-17T04:04:18.248Z,28.79
2023-01-17T04:06:50.929Z,28.25
2023-01-17T04:09:22.648Z,28.00
2023-01-17T04:11:54.169Z,27.92
2023-01-17T04:14:24.083Z,27.94
2023-01-17T04:17:00.218Z,27.94
2023-01-17T04:19:38.292Z,27.84
2023-01-17T04:22:11.666Z,27.89
2023-01-17T04:24:40.324Z,27.82
2023-01-17T04:27:19.595Z,27.83
2023-01-17T04:29:51.548Z,27.95
2023-01-17T04:32:22.974Z,27.95
2023-01-17T04:34:52.591Z,27.93
2023-01-17T04:37:24.750Z,27.78
2023-01-17T04:40:07.872Z,27.72
2023-01-17T04:42:36.696Z,27.76
2023-01-17T04:45:10.806Z,27.71
2023-01-17T04:47:40.876Z,27.68
2023-01-17T04:50:12.429Z,27.69
2023-01-17T04:52:43.557Z,27.73
2023-01-17T04:55:19.964Z,28.31
2023-01-17T04:57:50.586Z,27.93
2023-01-17T05:00:24.400Z,27.91
2023-01-17T05:03:00.269Z,27.91
2023-01-17T05:05:38.628Z,27.88
2023-01-17T05:08:09.019Z,27.75
2023-01-17T05:10:50.006Z,28.44
2023-01-17T05:13:23.245Z,27.97
2023-01-17T05:15:55.094Z,27.93
2023-01-17T05:18:26.936Z,27.93
2023-01-17T05:21:06.872Z,27.86
2023-01-17T05:23:36.553Z,27.86
2023-01-17T05:26:10.721Z,27.88
2023-01-17T05:28:41.157Z,27.79
2023-01-17T05:31:11.928Z,27.75
2023-01-17T05:33:41.171Z,27.74
2023-01-17T05:36:12.618Z,27.76
2023-01-17T05:38:42.747Z,27.81
2023-01-17T05:41:14.235Z,27.82
2023-01-17T05:43:44.331Z,27.82
2023-01-17T05:46:19.739Z,27.83
2023-01-17T05:48:51.916Z,27.87
2023-01-17T05:51:21.113Z,27.86
2023-01-17T05:53:54.561Z,27.90
2023-01-17T05:56:30.471Z,28.01
2023-01-17T05:59:06.767Z,28.05
2023-01-17T06:01:36.336Z,28.01
2023-01-17T06:04:08.476Z,28.09
2023-01-17T06:06:57.225Z,28.13
2023-01-17T06:09:42.848Z,28.18
2023-01-17T06:12:16.756Z,28.17
2023-01-17T06:14:56.104Z,28.28
2023-01-17T06:17:31.433Z,28.32
2023-01-17T06:20:03.807Z,28.30
2023-01-17T06:22:38.681Z,28.30
2023-01-17T06:25:08.571Z,28.26
2023-01-17T06:27:40.136Z,28.29
2023-01-17T06:30:18.243Z,28.33
2023-01-17T06:32:59.944Z,28.40
2023-01-17T06:35:31.787Z,28.44
2023-01-17T06:38:06.787Z,28.40
2023-01-17T06:40:36.594Z,28.39
2023-01-17T06:43:11.418Z,28.32
2023-01-17T06:45:44.593Z,28.65
2023-01-17T06:48:15.673Z,28.53
2023-01-17T06:50:48.829Z,28.43
2023-01-17T06:53:22.588Z,28.48
2023-01-17T06:55:54.441Z,28.44
2023-01-17T06:58:27.191Z,28.24
2023-01-17T07:01:02.184Z,28.19
2023-01-17T07:03:33.582Z,28.15
2023-01-17T07:06:08.549Z,28.16
2023-01-17T07:08:39.536Z,28.18
2023-01-17T07:11:10.976Z,28.24
2023-01-17T07:13:43.653Z,28.32
2023-01-17T07:16:13.025Z,28.35
2023-01-17T07:18:43.570Z,28.41
2023-01-17T07:21:17.095Z,28.42
2023-01-17T07:23:48.207Z,29.52
2023-01-17T07:26:18.762Z,28.99
2023-01-17T07:28:50.753Z,28.70
2023-01-17T07:31:21.299Z,28.59
2023-01-17T07:33:52.724Z,28.55
2023-01-17T07:36:27.876Z,28.46
2023-01-17T07:39:05.436Z,28.45
2023-01-17T07:41:42.912Z,28.46
2023-01-17T07:44:37.200Z,28.57
2023-01-17T07:48:31.654Z,28.70
2023-01-17T07:51:14.663Z,28.55
2023-01-17T07:53:47.599Z,28.34
2023-01-17T07:56:21.364Z,28.31
2023-01-17T07:58:55.032Z,28.26
2023-01-17T08:01:26.782Z,28.24
2023-01-17T08:04:15.850Z,28.26
2023-01-17T08:06:50.364Z,28.26
2023-01-17T08:09:32.113Z,28.36
2023-01-17T08:12:11.364Z,28.40
2023-01-17T08:15:08.680Z,28.52
2023-01-17T08:17:46.668Z,28.55
2023-01-17T08:20:19.148Z,28.52
2023-01-17T08:23:04.810Z,28.53
2023-01-17T08:25:44.147Z,28.56
2023-01-17T08:28:23.960Z,28.49
2023-01-17T08:30:55.065Z,28.47
2023-01-17T08:33:31.576Z,28.39
2023-01-17T08:36:06.842Z,28.47
2023-01-17T08:38:39.600Z,29.34
2023-01-17T08:41:11.049Z,28.84
2023-01-17T08:43:48.873Z,28.59
2023-01-17T08:46:23.376Z,28.53
2023-01-17T08:49:15.892Z,28.58
2023-01-17T08:51:47.421Z,28.59
2023-01-17T08:57:12.868Z,29.55
2023-01-17T08:59:51.130Z,29.05
2023-01-17T09:02:21.332Z,29.73
2023-01-17T09:05:08.897Z,29.19
2023-01-17T09:07:50.958Z,29.07
2023-01-17T09:10:20.690Z,28.94
2023-01-17T09:12:52.350Z,28.87
2023-01-17T09:15:24.302Z,28.77
2023-01-17T09:18:11.343Z,28.80
2023-01-17T09:20:42.882Z,28.80
2023-01-17T09:23:12.647Z,28.76
2023-01-17T09:25:52.364Z,28.85
2023-01-17T09:28:22.976Z,28.92
2023-01-17T09:30:56.636Z,28.93
2023-01-17T09:33:41.254Z,29.02
2023-01-17T09:36:16.235Z,29.09
2023-01-17T09:38:50.940Z,29.03
2023-01-17T09:41:24.210Z,28.99
2023-01-17T09:44:16.778Z,29.18
2023-01-17T09:46:50.979Z,29.14
2023-01-17T09:49:51.322Z,29.26
2023-01-17T09:52:28.529Z,29.27
2023-01-17T09:55:18.907Z,29.19
2023-01-17T09:58:15.206Z,29.19
2023-01-17T10:01:11.438Z,29.24
2023-01-17T10:04:09.218Z,29.62
2023-01-17T10:07:06.974Z,29.34
2023-01-17T10:10:08.647Z,29.25
2023-01-17T10:12:48.110Z,29.31
2023-01-17T10:16:08.395Z,29.43
2023-01-17T10:19:04.761Z,29.50
2023-01-17T10:22:12.776Z,29.49
2023-01-17T10:25:48.915Z,29.63
2023-01-17T10:28:52.639Z,29.63
2023-01-17T10:31:38.331Z,29.53
2023-01-17T10:34:26.324Z,29.50
2023-01-17T10:37:26.594Z,29.68
2023-01-17T10:40:26.713Z,29.63
2023-01-17T10:43:32.728Z,29.82
2023-01-17T10:46:05.219Z,29.66
2023-01-17T10:48:50.986Z,29.61
2023-01-17T10:52:04.777Z,29.69
2023-01-17T10:55:12.888Z,29.91
2023-01-17T10:57:53.569Z,29.80
2023-01-17T11:00:52.674Z,29.76
2023-01-17T11:03:22.805Z,29.77
2023-01-17T11:06:20.544Z,29.90
2023-01-17T11:09:01.395Z,29.86
2023-01-17T11:11:35.089Z,29.88
2023-01-17T11:14:20.632Z,29.84
2023-01-17T11:17:13.139Z,29.97
2023-01-17T11:19:54.811Z,29.94
2023-01-17T11:22:32.160Z,29.95
2023-01-17T11:25:08.661Z,29.92
2023-01-17T11:27:46.865Z,29.94
2023-01-17T11:30:23.546Z,29.94
2023-01-17T11:33:11.305Z,29.98
2023-01-17T11:35:49.013Z,30.05
2023-01-17T11:38:26.751Z,30.10
2023-01-17T11:41:31.545Z,30.06
2023-01-17T11:44:20.948Z,30.11
2023-01-17T11:47:10.985Z,30.25
2023-01-17T11:49:49.301Z,30.29
2023-01-17T11:52:34.710Z,30.16
2023-01-17T11:55:09.285Z,30.14
2023-01-17T11:57:38.732Z,30.99
2023-01-17T12:00:31.241Z,30.54
2023-01-17T12:03:18.842Z,30.50
2023-01-17T12:06:14.519Z,30.39
2023-01-17T12:09:06.567Z,30.40
2023-01-17T12:12:40.593Z,30.55
2023-01-17T12:15:52.624Z,30.65
2023-01-17T12:18:42.400Z,30.54
2023-01-17T12:21:32.988Z,30.49
2023-01-17T12:24:36.641Z,30.60
2023-01-17T12:27:34.568Z,30.39
2023-01-17T12:30:32.307Z,30.48
2023-01-17T12:33:15.812Z,30.51
2023-01-17T12:35:54.495Z,30.51
2023-01-17T12:38:43.045Z,30.36
2023-01-17T12:41:35.500Z,30.35
2023-01-17T12:44:09.156Z,30.35
2023-01-17T12:46:52.755Z,30.39
2023-01-17T12:50:15.879Z,30.53
2023-01-17T12:53:20.692Z,30.75
2023-01-17T12:56:03.212Z,30.73
2023-01-17T12:59:07.097Z,30.92
2023-01-17T13:01:43.049Z,30.74
2023-01-17T13:04:57.748Z,30.65
2023-01-17T13:07:38.502Z,30.86
2023-01-17T13:10:24.421Z,30.73
2023-01-17T13:13:25.103Z,30.71
2023-01-17T13:16:37.232Z,30.84
2023-01-17T13:19:31.984Z,30.70
2023-01-17T13:22:21.622Z,30.66
2023-01-17T13:25:38.963Z,30.82
2023-01-17T13:28:53.589Z,30.82
2023-01-17T13:32:00.200Z,30.87
2023-01-17T13:35:20.959Z,31.12
2023-01-17T13:38:23.396Z,31.14
2023-01-17T13:41:43.623Z,31.14
2023-01-17T13:44:48.184Z,31.07
2023-01-17T13:47:24.362Z,31.08
2023-01-17T13:50:47.700Z,31.06
2023-01-17T13:53:47.862Z,31.24
2023-01-17T13:56:40.396Z,31.29
2023-01-17T14:00:11.948Z,31.47
2023-01-17T14:03:53.187Z,31.75
2023-01-17T14:06:48.073Z,31.55
2023-01-17T14:09:49.432Z,31.69
2023-01-17T14:12:21.092Z,31.55
2023-01-17T14:15:15.268Z,31.53
2023-01-17T14:17:54.509Z,31.58
2023-01-17T14:20:44.954Z,31.82
2023-01-17T14:23:25.103Z,31.89
2023-01-17T14:26:36.695Z,32.15
2023-01-17T14:29:45.060Z,32.21
2023-01-17T14:32:40.177Z,32.20
2023-01-17T14:35:35.055Z,32.30
2023-01-17T14:41:57.014Z,32.53
2023-01-17T14:44:44.020Z,32.43
2023-01-17T14:47:20.905Z,32.40
2023-01-17T14:50:21.498Z,32.53
2023-01-17T14:53:32.394Z,32.75
2023-01-17T14:56:20.338Z,32.71
2023-01-17T14:59:19.011Z,32.72
2023-01-17T15:02:08.369Z,32.86
2023-01-17T15:04:45.975Z,33.04
2023-01-17T15:07:21.456Z,33.17
2023-01-17T15:09:56.678Z,33.19
2023-01-17T15:12:49.318Z,33.43
2023-01-17T15:15:46.559Z,33.45
2023-01-17T15:18:48.629Z,33.24
2023-01-17T15:22:05.403Z,33.35
2023-01-17T15:25:48.010Z,33.58
2023-01-17T15:28:44.208Z,33.43
2023-01-17T15:31:43.449Z,33.51
2023-01-17T15:35:17.561Z,33.76
2023-01-17T15:38:49.017Z,34.31
2023-01-17T15:41:44.466Z,34.49
2023-01-17T15:44:48.927Z,34.54
2023-01-17T15:47:51.847Z,34.36
2023-01-17T15:51:47.890Z,34.55
2023-01-17T15:55:39.678Z,34.74
2023-01-17T16:02:46.226Z,34.00
2023-01-17T16:05:38.664Z,34.23
2023-01-17T16:19:16.695Z,34.82
2023-01-17T16:29:32.630Z,34.80
2023-01-17T16:33:19.334Z,34.86
2023-01-17T16:36:40.711Z,34.51
2023-01-17T16:39:58.367Z,34.31
2023-01-17T16:43:26.581Z,34.51
2023-01-17T16:47:32.351Z,34.64
2023-01-17T16:50:19.543Z,34.62
2023-01-17T16:53:21.521Z,34.57
2023-01-17T17:26:44.365Z,34.75
2023-01-17T17:30:32.038Z,35.53
2023-01-17T17:47:49.348Z,36.95
2023-01-17T17:55:45.095Z,36.96
2023-01-17T17:58:21.775Z,36.55
2023-01-17T18:01:10.388Z,36.54
2023-01-17T18:04:24.104Z,36.81
2023-01-17T18:07:21.293Z,36.93
2023-01-17T18:09:52.915Z,36.75
2023-01-17T18:12:36.277Z,36.73
2023-01-17T18:15:13.417Z,36.80
2023-01-17T18:18:35.473Z,37.04
2023-01-17T18:21:27.239Z,37.03
2023-01-17T18:24:27.686Z,37.28
2023-01-17T18:27:16.930Z,37.31
2023-01-17T18:31:17.309Z,37.71
2023-01-17T18:37:04.913Z,37.94
2023-01-17T18:39:56.271Z,37.99
2023-01-17T18:43:15.463Z,38.35
2023-01-17T18:46:13.180Z,38.53
2023-01-17T18:49:08.895Z,38.56
2023-01-17T18:51:49.081Z,38.34
2023-01-17T18:54:21.160Z,38.23
2023-01-17T18:57:09.061Z,38.17
2023-01-17T18:59:48.889Z,38.31
2023-01-17T19:02:24.793Z,38.38
2023-01-17T19:05:17.028Z,38.52
2023-01-17T19:07:55.383Z,38.70
2023-01-17T19:10:35.855Z,38.72
2023-01-17T19:13:21.569Z,38.86
2023-01-17T19:16:03.348Z,38.82
2023-01-17T19:23:47.557Z,39.55
2023-01-17T19:26:25.181Z,39.36
2023-01-17T19:29:08.955Z,39.34
2023-01-17T19:31:48.509Z,39.41
2023-01-17T19:34:20.486Z,39.31
2023-01-17T19:36:56.217Z,39.38
2023-01-17T19:39:32.142Z,39.54
2023-01-17T19:42:20.717Z,39.34
2023-01-17T19:44:56.679Z,39.02
2023-01-17T19:47:39.749Z,39.60
2023-01-17T19:50:15.985Z,39.60
2023-01-17T19:52:46.064Z,39.56
2023-01-17T19:55:19.373Z,39.40
2023-01-17T19:58:05.995Z,39.38
2023-01-17T20:00:49.510Z,39.50
2023-01-17T20:03:41.383Z,39.44
2023-01-17T20:06:18.563Z,39.28
2023-01-17T20:09:08.216Z,39.25
2023-01-17T20:12:16.472Z,39.42
2023-01-17T20:14:48.967Z,39.32
2023-01-17T20:17:23.120Z,39.35
2023-01-17T20:19:55.901Z,39.51
2023-01-17T20:22:26.079Z,38.68
2023-01-17T20:25:03.561Z,38.62
2023-01-17T20:27:36.409Z,38.49
2023-01-17T20:30:20.258Z,38.44
2023-01-17T20:32:56.362Z,39.17
2023-01-17T20:35:37.513Z,39.27
2023-01-17T20:38:15.324Z,39.23
2023-01-17T20:40:45.158Z,39.24
2023-01-17T20:43:17.439Z,39.29
2023-01-17T20:45:56.878Z,39.36
2023-01-17T20:48:35.386Z,39.25
2023-01-17T20:51:13.230Z,39.05
2023-01-17T20:53:45.669Z,39.07
2023-01-17T20:56:18.594Z,39.09
2023-01-17T20:58:49.561Z,39.19
2023-01-17T21:01:25.031Z,39.19
2023-01-17T21:04:05.306Z,39.17
2023-01-17T21:06:47.829Z,39.23
2023-01-17T21:09:40.868Z,39.24
2023-01-17T21:13:17.993Z,39.33
2023-01-17T21:16:15.900Z,39.39
2023-01-17T21:18:48.730Z,39.10
2023-01-17T21:21:24.270Z,39.00
2023-01-17T21:24:01.972Z,38.91
2023-01-17T21:26:40.316Z,39.03
2023-01-17T21:29:13.893Z,39.02
2023-01-17T21:31:48.673Z,38.97
2023-01-17T21:34:25.384Z,38.74
2023-01-17T21:37:09.845Z,38.88
2023-01-17T21:39:43.267Z,38.80
2023-01-17T21:42:14.794Z,38.77
2023-01-17T21:44:47.632Z,38.71
2023-01-17T21:47:19.427Z,38.68
2023-01-17T21:49:48.904Z,38.62
2023-01-17T21:52:20.889Z,38.45
2023-01-17T21:55:09.508Z,38.39
2023-01-17T21:58:04.944Z,38.64
2023-01-17T22:00:42.964Z,38.75
2023-01-17T22:03:15.045Z,38.49
2023-01-17T22:05:44.966Z,38.33
2023-01-17T22:08:19.072Z,37.88
2023-01-17T22:10:49.016Z,37.72
2023-01-17T22:13:21.141Z,37.68
2023-01-17T22:16:03.277Z,37.75
2023-01-17T22:18:38.799Z,37.78
2023-01-17T22:21:15.447Z,37.68
2023-01-17T22:23:54.313Z,37.45
2023-01-17T22:26:28.993Z,37.37
2023-01-17T22:29:07.877Z,37.64
2023-01-17T22:31:38.183Z,37.67
2023-01-17T22:34:12.151Z,37.40
2023-01-17T22:36:43.721Z,37.33
2023-01-17T22:39:16.013Z,37.65
2023-01-17T22:41:45.953Z,37.52
2023-01-17T22:44:19.080Z,37.49
2023-01-17T22:46:49.599Z,37.42
2023-01-17T22:49:25.693Z,37.35
2023-01-17T22:52:00.258Z,37.15
2023-01-17T22:54:43.605Z,37.31
2023-01-17T22:57:15.678Z,37.27
2023-01-17T22:59:47.686Z,37.11
2023-01-17T23:02:20.378Z,37.05
2023-01-17T23:04:49.755Z,37.04
2023-01-17T23:07:25.294Z,37.01
2023-01-17T23:10:03.591Z,36.74
2023-01-17T23:12:36.158Z,36.50
2023-01-17T23:15:24.575Z,36.54
2023-01-17T23:18:21.503Z,36.36
2023-01-17T23:20:55.402Z,36.15
2023-01-17T23:23:25.166Z,35.93
2023-01-17T23:26:03.032Z,36.37
2023-01-17T23:28:34.319Z,35.94
2023-01-17T23:31:08.156Z,35.92
2023-01-17T23:33:37.542Z,35.94
2023-01-17T23:36:11.315Z,35.91
2023-01-17T23:38:44.817Z,35.91
2023-01-17T23:41:34.672Z,36.43
2023-01-17T23:44:04.998Z,37.25
2023-01-17T23:46:36.352Z,36.33
2023-01-17T23:49:08.699Z,36.11
